sensor_id;sensor_type;location;lat;lon;timestamp;pressure;altitude;pressure_sealevel;temperature;humidity
23229;BME280;11783;50.350;6.576;2023-04-24T00:01:47;94872.91;;;9.05;100.00
23229;BME280;11783;50.350;6.576;2023-04-24T00:04:13;94866.81;;;9.04;100.00
23229;BME280;11783;50.350;6.576;2023-04-24T00:06:41;94874.50;;;8.96;100.00
23229;BME280;11783;50.350;6.576;2023-04-24T00:09:08;94875.84;;;8.98;100.00
23229;BME280;11783;50.350;6.576;2023-04-24T00:11:35;94870.81;;;8.97;100.00
23229;BME280;11783;50.350;6.576;2023-04-24T00:14:01;94864.44;;;8.88;100.00
23229;BME280;11783;50.350;6.576;2023-04-24T00:16:26;94860.72;;;8.89;100.00
23229;BME280;11783;50.350;6.576;2023-04-24T00:18:53;94866.28;;;8.97;100.00
23229;BME280;11783;50.350;6.576;2023-04-24T00:21:18;94864.19;;;8.94;100.00
23229;BME280;11783;50.350;6.576;2023-04-24T00:23:45;94862.03;;;8.86;100.00
23229;BME280;11783;50.350;6.576;2023-04-24T00:26:11;94854.91;;;8.97;100.00
23229;BME280;11783;50.350;6.576;2023-04-24T00:28:36;94862.31;;;8.85;100.00
23229;BME280;11783;50.350;6.576;2023-04-24T00:31:02;94856.47;;;9.03;100.00
23229;BME280;11783;50.350;6.576;2023-04-24T00:33:35;94858.34;;;9.02;100.00
23229;BME280;11783;50.350;6.576;2023-04-24T00:36:03;94864.69;;;8.86;100.00
23229;BME280;11783;50.350;6.576;2023-04-24T00:38:29;94874.22;;;8.87;100.00
23229;BME280;11783;50.350;6.576;2023-04-24T00:40:54;94901.22;;;8.54;100.00
23229;BME280;11783;50.350;6.576;2023-04-24T00:43:20;94892.31;;;8.02;100.00
23229;BME280;11783;50.350;6.576;2023-04-24T00:45:46;94908.84;;;7.77;100.00
23229;BME280;11783;50.350;6.576;2023-04-24T00:48:11;94929.13;;;7.62;100.00
23229;BME280;11783;50.350;6.576;2023-04-24T00:50:38;94907.31;;;7.39;100.00
23229;BME280;11783;50.350;6.576;2023-04-24T00:53:03;94915.16;;;7.24;100.00
23229;BME280;11783;50.350;6.576;2023-04-24T00:55:30;94916.69;;;7.15;100.00
23229;BME280;11783;50.350;6.576;2023-04-24T00:57:55;94901.06;;;7.08;100.00
23229;BME280;11783;50.350;6.576;2023-04-24T01:00:21;94914.53;;;7.07;100.00
23229;BME280;11783;50.350;6.576;2023-04-24T01:02:48;94903.09;;;7.01;100.00
23229;BME280;11783;50.350;6.576;2023-04-24T01:05:14;94918.13;;;6.95;100.00
23229;BME280;11783;50.350;6.576;2023-04-24T01:07:43;94920.47;;;6.65;100.00
23229;BME280;11783;50.350;6.576;2023-04-24T01:10:11;94922.13;;;6.71;100.00
23229;BME280;11783;50.350;6.576;2023-04-24T01:12:37;94924.53;;;6.73;100.00
23229;BME280;11783;50.350;6.576;2023-04-24T01:15:02;94912.84;;;6.68;100.00
23229;BME280;11783;50.350;6.576;2023-04-24T01:17:29;94913.97;;;6.73;100.00
23229;BME280;11783;50.350;6.576;2023-04-24T01:19:55;94897.66;;;6.81;100.00
23229;BME280;11783;50.350;6.576;2023-04-24T01:22:22;94916.78;;;6.66;100.00
23229;BME280;11783;50.350;6.576;2023-04-24T01:24:48;94903.81;;;6.59;100.00
23229;BME280;11783;50.350;6.576;2023-04-24T01:27:14;94906.16;;;6.56;100.00
23229;BME280;11783;50.350;6.576;2023-04-24T01:29:40;94903.91;;;6.43;100.00
23229;BME280;11783;50.350;6.576;2023-04-24T01:32:06;94914.59;;;6.31;100.00
23229;BME280;11783;50.350;6.576;2023-04-24T01:34:34;94892.50;;;6.37;100.00
23229;BME280;11783;50.350;6.576;2023-04-24T01:37:00;94905.44;;;6.38;100.00
23229;BME280;11783;50.350;6.576;2023-04-24T01:39:25;94914.47;;;6.43;100.00
23229;BME280;11783;50.350;6.576;2023-04-24T01:41:54;94911.91;;;6.26;100.00
23229;BME280;11783;50.350;6.576;2023-04-24T01:44:20;94916.94;;;6.27;100.00
23229;BME280;11783;50.350;6.576;2023-04-24T01:46:46;94913.91;;;6.14;100.00
23229;BME280;11783;50.350;6.576;2023-04-24T01:49:11;94911.72;;;6.11;100.00
23229;BME280;11783;50.350;6.576;2023-04-24T01:51:37;94915.34;;;6.26;100.00
23229;BME280;11783;50.350;6.576;2023-04-24T01:54:02;94921.00;;;6.35;100.00
23229;BME280;11783;50.350;6.576;2023-04-24T01:56:33;94921.53;;;6.37;100.00
23229;BME280;11783;50.350;6.576;2023-04-24T01:59:02;94925.22;;;6.36;100.00
23229;BME280;11783;50.350;6.576;2023-04-24T02:01:33;94926.31;;;6.40;100.00
23229;BME280;11783;50.350;6.576;2023-04-24T02:03:59;94923.88;;;6.33;100.00
23229;BME280;11783;50.350;6.576;2023-04-24T02:06:25;94926.28;;;6.35;100.00
23229;BME280;11783;50.350;6.576;2023-04-24T02:08:50;94939.47;;;6.35;100.00
23229;BME280;11783;50.350;6.576;2023-04-24T02:11:16;94936.38;;;6.43;100.00
23229;BME280;11783;50.350;6.576;2023-04-24T02:13:44;94933.59;;;6.55;100.00
23229;BME280;11783;50.350;6.576;2023-04-24T02:16:09;94942.50;;;6.49;100.00
23229;BME280;11783;50.350;6.576;2023-04-24T02:18:35;94933.44;;;6.66;100.00
23229;BME280;11783;50.350;6.576;2023-04-24T02:21:00;94934.72;;;6.64;100.00
23229;BME280;11783;50.350;6.576;2023-04-24T02:23:26;94942.53;;;6.27;100.00
23229;BME280;11783;50.350;6.576;2023-04-24T02:25:52;94950.19;;;6.28;100.00
23229;BME280;11783;50.350;6.576;2023-04-24T02:28:18;94954.63;;;6.23;100.00
23229;BME280;11783;50.350;6.576;2023-04-24T02:30:44;94961.44;;;6.19;100.00
23229;BME280;11783;50.350;6.576;2023-04-24T02:33:09;94962.41;;;6.13;100.00
23229;BME280;11783;50.350;6.576;2023-04-24T02:35:35;94965.78;;;6.08;100.00
23229;BME280;11783;50.350;6.576;2023-04-24T02:38:00;94961.06;;;6.10;100.00
23229;BME280;11783;50.350;6.576;2023-04-24T02:40:25;94967.00;;;6.00;100.00
23229;BME280;11783;50.350;6.576;2023-04-24T02:42:51;94957.63;;;6.10;100.00
23229;BME280;11783;50.350;6.576;2023-04-24T02:45:16;94962.91;;;6.10;100.00
23229;BME280;11783;50.350;6.576;2023-04-24T02:47:41;94963.28;;;6.18;100.00
23229;BME280;11783;50.350;6.576;2023-04-24T02:50:07;94967.47;;;6.14;100.00
23229;BME280;11783;50.350;6.576;2023-04-24T02:52:33;94954.19;;;6.09;100.00
23229;BME280;11783;50.350;6.576;2023-04-24T02:54:58;94959.91;;;6.23;100.00
23229;BME280;11783;50.350;6.576;2023-04-24T02:57:23;94959.84;;;6.18;100.00
23229;BME280;11783;50.350;6.576;2023-04-24T02:59:49;94968.84;;;6.22;100.00
23229;BME280;11783;50.350;6.576;2023-04-24T03:02:14;94967.44;;;6.36;100.00
23229;BME280;11783;50.350;6.576;2023-04-24T03:04:40;94963.31;;;6.45;100.00
23229;BME280;11783;50.350;6.576;2023-04-24T03:07:05;94960.00;;;6.55;100.00
23229;BME280;11783;50.350;6.576;2023-04-24T03:09:31;94965.31;;;6.60;100.00
23229;BME280;11783;50.350;6.576;2023-04-24T03:11:56;94954.16;;;6.53;100.00
23229;BME280;11783;50.350;6.576;2023-04-24T03:14:22;94947.03;;;6.53;100.00
23229;BME280;11783;50.350;6.576;2023-04-24T03:16:47;94952.09;;;6.33;100.00
23229;BME280;11783;50.350;6.576;2023-04-24T03:19:12;94944.75;;;6.35;100.00
23229;BME280;11783;50.350;6.576;2023-04-24T03:21:38;94946.09;;;6.16;100.00
23229;BME280;11783;50.350;6.576;2023-04-24T03:24:09;94950.59;;;6.15;100.00
23229;BME280;11783;50.350;6.576;2023-04-24T03:26:34;94938.28;;;6.26;100.00
23229;BME280;11783;50.350;6.576;2023-04-24T03:29:00;94943.72;;;6.14;100.00
23229;BME280;11783;50.350;6.576;2023-04-24T03:31:26;94938.13;;;6.11;100.00
23229;BME280;11783;50.350;6.576;2023-04-24T03:33:51;94940.84;;;6.16;100.00
23229;BME280;11783;50.350;6.576;2023-04-24T03:36:16;94950.09;;;6.18;100.00
23229;BME280;11783;50.350;6.576;2023-04-24T03:38:42;94954.16;;;6.31;100.00
23229;BME280;11783;50.350;6.576;2023-04-24T03:41:08;94948.53;;;6.22;100.00
23229;BME280;11783;50.350;6.576;2023-04-24T03:43:33;94946.91;;;6.16;100.00
23229;BME280;11783;50.350;6.576;2023-04-24T03:46:00;94951.38;;;6.16;100.00
23229;BME280;11783;50.350;6.576;2023-04-24T03:48:25;94944.50;;;6.15;100.00
23229;BME280;11783;50.350;6.576;2023-04-24T03:50:51;94952.25;;;5.99;100.00
23229;BME280;11783;50.350;6.576;2023-04-24T03:53:16;94943.44;;;5.94;100.00
23229;BME280;11783;50.350;6.576;2023-04-24T03:55:41;94949.38;;;5.84;100.00
23229;BME280;11783;50.350;6.576;2023-04-24T03:58:07;94941.13;;;5.97;100.00
23229;BME280;11783;50.350;6.576;2023-04-24T04:00:32;94948.84;;;6.04;100.00
23229;BME280;11783;50.350;6.576;2023-04-24T04:02:58;94953.47;;;6.14;100.00
23229;BME280;11783;50.350;6.576;2023-04-24T04:05:23;94950.63;;;6.20;100.00
23229;BME280;11783;50.350;6.576;2023-04-24T04:07:49;94950.34;;;6.17;100.00
23229;BME280;11783;50.350;6.576;2023-04-24T04:10:14;94952.91;;;6.12;100.00
23229;BME280;11783;50.350;6.576;2023-04-24T04:12:39;94945.22;;;6.10;100.00
23229;BME280;11783;50.350;6.576;2023-04-24T04:15:05;94956.78;;;6.04;100.00
23229;BME280;11783;50.350;6.576;2023-04-24T04:17:32;94953.53;;;5.97;100.00
23229;BME280;11783;50.350;6.576;2023-04-24T04:19:57;94946.88;;;5.94;100.00
23229;BME280;11783;50.350;6.576;2023-04-24T04:22:22;94951.34;;;5.94;100.00
23229;BME280;11783;50.350;6.576;2023-04-24T04:24:48;94950.16;;;5.85;100.00
23229;BME280;11783;50.350;6.576;2023-04-24T04:27:13;94956.41;;;5.95;100.00
23229;BME280;11783;50.350;6.576;2023-04-24T04:29:39;94963.41;;;6.06;100.00
23229;BME280;11783;50.350;6.576;2023-04-24T04:32:05;94961.69;;;5.95;100.00
23229;BME280;11783;50.350;6.576;2023-04-24T04:34:31;94969.66;;;6.00;100.00
23229;BME280;11783;50.350;6.576;2023-04-24T04:36:57;94957.22;;;5.96;100.00
23229;BME280;11783;50.350;6.576;2023-04-24T04:39:27;94961.19;;;5.98;100.00
23229;BME280;11783;50.350;6.576;2023-04-24T04:41:53;94959.22;;;6.11;100.00
23229;BME280;11783;50.350;6.576;2023-04-24T04:44:19;94964.50;;;6.11;100.00
23229;BME280;11783;50.350;6.576;2023-04-24T04:46:44;94963.34;;;6.23;100.00
23229;BME280;11783;50.350;6.576;2023-04-24T04:49:10;94967.63;;;6.29;100.00
23229;BME280;11783;50.350;6.576;2023-04-24T04:51:36;94969.94;;;6.26;100.00
23229;BME280;11783;50.350;6.576;2023-04-24T04:54:01;94964.03;;;6.14;100.00
23229;BME280;11783;50.350;6.576;2023-04-24T04:56:27;94974.69;;;6.24;100.00
23229;BME280;11783;50.350;6.576;2023-04-24T04:58:52;94983.19;;;6.31;100.00
23229;BME280;11783;50.350;6.576;2023-04-24T05:01:18;94979.66;;;6.20;100.00
23229;BME280;11783;50.350;6.576;2023-04-24T05:03:44;94983.09;;;6.21;100.00
23229;BME280;11783;50.350;6.576;2023-04-24T05:06:09;94985.28;;;6.29;100.00
23229;BME280;11783;50.350;6.576;2023-04-24T05:08:35;94992.47;;;6.33;100.00
23229;BME280;11783;50.350;6.576;2023-04-24T05:11:00;94990.41;;;6.35;100.00
23229;BME280;11783;50.350;6.576;2023-04-24T05:13:26;94996.38;;;6.31;100.00
23229;BME280;11783;50.350;6.576;2023-04-24T05:15:51;94994.06;;;6.34;100.00
23229;BME280;11783;50.350;6.576;2023-04-24T05:18:17;94998.38;;;6.19;100.00
23229;BME280;11783;50.350;6.576;2023-04-24T05:20:42;95005.84;;;6.27;100.00
23229;BME280;11783;50.350;6.576;2023-04-24T05:23:09;95009.47;;;6.21;100.00
23229;BME280;11783;50.350;6.576;2023-04-24T05:25:35;95006.38;;;6.07;100.00
23229;BME280;11783;50.350;6.576;2023-04-24T05:28:01;95004.00;;;6.05;100.00
23229;BME280;11783;50.350;6.576;2023-04-24T05:30:27;95016.03;;;6.18;100.00
23229;BME280;11783;50.350;6.576;2023-04-24T05:32:52;95024.50;;;6.20;100.00
23229;BME280;11783;50.350;6.576;2023-04-24T05:35:17;95015.25;;;6.18;100.00
23229;BME280;11783;50.350;6.576;2023-04-24T05:37:44;95020.28;;;6.19;100.00
23229;BME280;11783;50.350;6.576;2023-04-24T05:40:09;95012.41;;;6.24;100.00
23229;BME280;11783;50.350;6.576;2023-04-24T05:42:35;95034.81;;;6.22;100.00
23229;BME280;11783;50.350;6.576;2023-04-24T05:45:01;95032.59;;;6.14;100.00
23229;BME280;11783;50.350;6.576;2023-04-24T05:47:26;95034.34;;;6.08;100.00
23229;BME280;11783;50.350;6.576;2023-04-24T05:49:52;95036.59;;;6.16;100.00
23229;BME280;11783;50.350;6.576;2023-04-24T05:52:18;95030.44;;;6.11;100.00
23229;BME280;11783;50.350;6.576;2023-04-24T05:54:43;95028.94;;;6.15;100.00
23229;BME280;11783;50.350;6.576;2023-04-24T05:57:08;95031.88;;;6.18;100.00
23229;BME280;11783;50.350;6.576;2023-04-24T05:59:37;95037.50;;;6.27;100.00
23229;BME280;11783;50.350;6.576;2023-04-24T06:02:03;95030.34;;;6.22;100.00
23229;BME280;11783;50.350;6.576;2023-04-24T06:04:28;95039.53;;;6.20;100.00
23229;BME280;11783;50.350;6.576;2023-04-24T06:06:54;95042.00;;;6.26;100.00
23229;BME280;11783;50.350;6.576;2023-04-24T06:09:22;95046.47;;;6.26;100.00
23229;BME280;11783;50.350;6.576;2023-04-24T06:11:48;95050.94;;;6.25;100.00
23229;BME280;11783;50.350;6.576;2023-04-24T06:14:13;95051.75;;;6.26;100.00
23229;BME280;11783;50.350;6.576;2023-04-24T06:16:41;95045.91;;;6.24;100.00
23229;BME280;11783;50.350;6.576;2023-04-24T06:19:07;95078.00;;;6.16;100.00
23229;BME280;11783;50.350;6.576;2023-04-24T06:21:32;95062.81;;;6.06;100.00
23229;BME280;11783;50.350;6.576;2023-04-24T06:23:57;95071.13;;;6.15;100.00
23229;BME280;11783;50.350;6.576;2023-04-24T06:26:23;95060.59;;;6.15;100.00
23229;BME280;11783;50.350;6.576;2023-04-24T06:28:50;95067.81;;;6.24;100.00
23229;BME280;11783;50.350;6.576;2023-04-24T06:31:16;95059.25;;;6.34;100.00
23229;BME280;11783;50.350;6.576;2023-04-24T06:33:42;95069.63;;;6.41;100.00
23229;BME280;11783;50.350;6.576;2023-04-24T06:36:08;95083.16;;;6.27;100.00
23229;BME280;11783;50.350;6.576;2023-04-24T06:38:33;95085.50;;;6.24;100.00
23229;BME280;11783;50.350;6.576;2023-04-24T06:40:59;95072.44;;;6.34;100.00
23229;BME280;11783;50.350;6.576;2023-04-24T06:43:25;95075.81;;;6.13;100.00
23229;BME280;11783;50.350;6.576;2023-04-24T06:45:50;95087.09;;;6.25;100.00
23229;BME280;11783;50.350;6.576;2023-04-24T06:48:15;95079.09;;;6.20;100.00
23229;BME280;11783;50.350;6.576;2023-04-24T06:50:41;95094.13;;;6.19;100.00
23229;BME280;11783;50.350;6.576;2023-04-24T06:53:06;95081.44;;;6.16;100.00
23229;BME280;11783;50.350;6.576;2023-04-24T06:55:32;95081.75;;;6.20;100.00
23229;BME280;11783;50.350;6.576;2023-04-24T06:57:57;95079.84;;;6.15;100.00
23229;BME280;11783;50.350;6.576;2023-04-24T07:00:23;95089.50;;;6.10;100.00
23229;BME280;11783;50.350;6.576;2023-04-24T07:02:49;95086.31;;;6.07;100.00
23229;BME280;11783;50.350;6.576;2023-04-24T07:05:14;95083.97;;;6.11;100.00
23229;BME280;11783;50.350;6.576;2023-04-24T07:07:40;95087.91;;;6.08;100.00
23229;BME280;11783;50.350;6.576;2023-04-24T07:10:07;95091.09;;;6.11;100.00
23229;BME280;11783;50.350;6.576;2023-04-24T07:12:33;95090.72;;;6.02;100.00
23229;BME280;11783;50.350;6.576;2023-04-24T07:15:00;95093.38;;;6.02;100.00
23229;BME280;11783;50.350;6.576;2023-04-24T07:17:25;95094.91;;;5.98;100.00
23229;BME280;11783;50.350;6.576;2023-04-24T07:19:51;95097.44;;;5.93;100.00
23229;BME280;11783;50.350;6.576;2023-04-24T07:22:16;95106.25;;;5.98;100.00
23229;BME280;11783;50.350;6.576;2023-04-24T07:24:43;95096.41;;;5.94;100.00
23229;BME280;11783;50.350;6.576;2023-04-24T07:27:09;95097.84;;;6.01;100.00
23229;BME280;11783;50.350;6.576;2023-04-24T07:29:34;95107.09;;;6.04;100.00
23229;BME280;11783;50.350;6.576;2023-04-24T07:32:00;95100.25;;;6.03;100.00
23229;BME280;11783;50.350;6.576;2023-04-24T07:34:26;95107.19;;;5.92;100.00
23229;BME280;11783;50.350;6.576;2023-04-24T07:36:51;95101.97;;;5.64;100.00
23229;BME280;11783;50.350;6.576;2023-04-24T07:39:17;95117.16;;;5.73;100.00
23229;BME280;11783;50.350;6.576;2023-04-24T07:41:42;95129.94;;;5.82;100.00
23229;BME280;11783;50.350;6.576;2023-04-24T07:44:08;95129.56;;;5.90;100.00
23229;BME280;11783;50.350;6.576;2023-04-24T07:46:33;95127.78;;;5.78;100.00
23229;BME280;11783;50.350;6.576;2023-04-24T07:48:58;95128.09;;;5.82;100.00
23229;BME280;11783;50.350;6.576;2023-04-24T07:51:26;95125.00;;;5.85;100.00
23229;BME280;11783;50.350;6.576;2023-04-24T07:53:53;95132.66;;;5.87;100.00
23229;BME280;11783;50.350;6.576;2023-04-24T07:56:20;95150.31;;;5.86;100.00
23229;BME280;11783;50.350;6.576;2023-04-24T07:58:45;95154.78;;;5.86;100.00
23229;BME280;11783;50.350;6.576;2023-04-24T08:01:11;95168.78;;;5.86;100.00
23229;BME280;11783;50.350;6.576;2023-04-24T08:03:36;95174.84;;;5.87;100.00
23229;BME280;11783;50.350;6.576;2023-04-24T08:06:01;95171.91;;;5.83;100.00
23229;BME280;11783;50.350;6.576;2023-04-24T08:08:27;95182.91;;;5.80;100.00
23229;BME280;11783;50.350;6.576;2023-04-24T08:10:52;95181.56;;;5.77;100.00
23229;BME280;11783;50.350;6.576;2023-04-24T08:13:18;95182.50;;;5.88;100.00
23229;BME280;11783;50.350;6.576;2023-04-24T08:15:43;95169.31;;;5.88;100.00
23229;BME280;11783;50.350;6.576;2023-04-24T08:18:08;95188.81;;;5.87;100.00
23229;BME280;11783;50.350;6.576;2023-04-24T08:20:36;95190.22;;;5.90;100.00
23229;BME280;11783;50.350;6.576;2023-04-24T08:23:02;95194.66;;;5.89;100.00
23229;BME280;11783;50.350;6.576;2023-04-24T08:25:27;95196.16;;;5.97;100.00
23229;BME280;11783;50.350;6.576;2023-04-24T08:27:53;95203.41;;;5.90;100.00
23229;BME280;11783;50.350;6.576;2023-04-24T08:30:18;95204.41;;;5.89;100.00
23229;BME280;11783;50.350;6.576;2023-04-24T08:32:44;95210.47;;;5.89;100.00
23229;BME280;11783;50.350;6.576;2023-04-24T08:35:09;95210.22;;;6.02;100.00
23229;BME280;11783;50.350;6.576;2023-04-24T08:37:35;95223.47;;;6.07;100.00
23229;BME280;11783;50.350;6.576;2023-04-24T08:40:02;95226.03;;;6.02;100.00
23229;BME280;11783;50.350;6.576;2023-04-24T08:42:31;95256.00;;;5.96;100.00
23229;BME280;11783;50.350;6.576;2023-04-24T08:44:58;95243.31;;;5.82;100.00
23229;BME280;11783;50.350;6.576;2023-04-24T08:47:24;95231.19;;;5.81;100.00
23229;BME280;11783;50.350;6.576;2023-04-24T08:49:52;95233.91;;;5.86;100.00
23229;BME280;11783;50.350;6.576;2023-04-24T08:52:18;95246.03;;;5.98;100.00
23229;BME280;11783;50.350;6.576;2023-04-24T08:54:45;95245.53;;;6.01;100.00
23229;BME280;11783;50.350;6.576;2023-04-24T08:57:14;95241.63;;;6.04;100.00
23229;BME280;11783;50.350;6.576;2023-04-24T08:59:40;95257.84;;;5.96;100.00
23229;BME280;11783;50.350;6.576;2023-04-24T09:02:06;95258.97;;;6.00;100.00
23229;BME280;11783;50.350;6.576;2023-04-24T09:04:35;95259.78;;;6.00;100.00
23229;BME280;11783;50.350;6.576;2023-04-24T09:07:01;95256.47;;;5.93;100.00
23229;BME280;11783;50.350;6.576;2023-04-24T09:09:30;95262.78;;;5.92;100.00
23229;BME280;11783;50.350;6.576;2023-04-24T09:11:58;95276.88;;;5.98;100.00
23229;BME280;11783;50.350;6.576;2023-04-24T09:14:26;95278.59;;;5.92;100.00
23229;BME280;11783;50.350;6.576;2023-04-24T09:16:51;95276.31;;;5.96;100.00
23229;BME280;11783;50.350;6.576;2023-04-24T09:19:17;95285.22;;;5.95;100.00
23229;BME280;11783;50.350;6.576;2023-04-24T09:21:45;95292.69;;;5.98;100.00
23229;BME280;11783;50.350;6.576;2023-04-24T09:24:17;95295.72;;;6.06;100.00
23229;BME280;11783;50.350;6.576;2023-04-24T09:26:43;95296.78;;;6.05;100.00
23229;BME280;11783;50.350;6.576;2023-04-24T09:29:17;95289.34;;;6.02;100.00
23229;BME280;11783;50.350;6.576;2023-04-24T09:31:43;95293.34;;;6.05;100.00
23229;BME280;11783;50.350;6.576;2023-04-24T09:34:08;95303.88;;;6.05;100.00
23229;BME280;11783;50.350;6.576;2023-04-24T09:39:05;95306.47;;;6.17;100.00
23229;BME280;11783;50.350;6.576;2023-04-24T09:41:32;95305.19;;;6.19;100.00
23229;BME280;11783;50.350;6.576;2023-04-24T09:44:14;95312.56;;;6.17;100.00
23229;BME280;11783;50.350;6.576;2023-04-24T09:46:41;95310.75;;;6.06;100.00
23229;BME280;11783;50.350;6.576;2023-04-24T09:49:13;95322.59;;;6.03;100.00
23229;BME280;11783;50.350;6.576;2023-04-24T09:51:40;95323.06;;;6.00;100.00
23229;BME280;11783;50.350;6.576;2023-04-24T09:54:17;95322.06;;;5.90;100.00
23229;BME280;11783;50.350;6.576;2023-04-24T09:56:44;95326.19;;;5.86;100.00
23229;BME280;11783;50.350;6.576;2023-04-24T09:59:11;95327.44;;;5.95;100.00
23229;BME280;11783;50.350;6.576;2023-04-24T10:01:36;95333.06;;;5.98;100.00
23229;BME280;11783;50.350;6.576;2023-04-24T10:04:03;95349.44;;;5.89;100.00
23229;BME280;11783;50.350;6.576;2023-04-24T10:06:35;95335.94;;;5.85;100.00
23229;BME280;11783;50.350;6.576;2023-04-24T10:09:01;95341.88;;;5.92;100.00
23229;BME280;11783;50.350;6.576;2023-04-24T10:11:27;95340.06;;;5.93;100.00
23229;BME280;11783;50.350;6.576;2023-04-24T10:13:53;95344.97;;;6.01;100.00
23229;BME280;11783;50.350;6.576;2023-04-24T10:16:20;95347.53;;;5.96;100.00
23229;BME280;11783;50.350;6.576;2023-04-24T10:18:47;95351.03;;;6.01;100.00
23229;BME280;11783;50.350;6.576;2023-04-24T10:21:14;95343.44;;;6.05;100.00
23229;BME280;11783;50.350;6.576;2023-04-24T10:23:41;95344.00;;;6.07;100.00
23229;BME280;11783;50.350;6.576;2023-04-24T10:26:09;95341.34;;;6.19;100.00
23229;BME280;11783;50.350;6.576;2023-04-24T10:28:36;95346.22;;;6.27;100.00
23229;BME280;11783;50.350;6.576;2023-04-24T10:31:01;95353.53;;;6.36;100.00
23229;BME280;11783;50.350;6.576;2023-04-24T10:33:27;95360.09;;;6.34;100.00
23229;BME280;11783;50.350;6.576;2023-04-24T10:35:55;95358.81;;;6.36;100.00
23229;BME280;11783;50.350;6.576;2023-04-24T10:38:25;95356.06;;;6.31;100.00
23229;BME280;11783;50.350;6.576;2023-04-24T10:41:13;95382.78;;;6.35;100.00
23229;BME280;11783;50.350;6.576;2023-04-24T10:43:44;95375.72;;;6.24;100.00
23229;BME280;11783;50.350;6.576;2023-04-24T10:46:10;95378.28;;;6.19;100.00
23229;BME280;11783;50.350;6.576;2023-04-24T10:48:35;95378.28;;;6.19;100.00
23229;BME280;11783;50.350;6.576;2023-04-24T10:51:01;95396.53;;;6.08;100.00
23229;BME280;11783;50.350;6.576;2023-04-24T10:53:28;95392.78;;;6.04;100.00
23229;BME280;11783;50.350;6.576;2023-04-24T10:56:05;95395.09;;;6.01;100.00
23229;BME280;11783;50.350;6.576;2023-04-24T10:58:43;95395.88;;;6.01;100.00
23229;BME280;11783;50.350;6.576;2023-04-24T11:01:32;95399.31;;;6.02;100.00
23229;BME280;11783;50.350;6.576;2023-04-24T11:04:03;95416.28;;;6.06;100.00
23229;BME280;11783;50.350;6.576;2023-04-24T11:06:33;95404.69;;;6.07;100.00
23229;BME280;11783;50.350;6.576;2023-04-24T11:09:08;95427.38;;;6.08;100.00
23229;BME280;11783;50.350;6.576;2023-04-24T11:11:35;95423.84;;;6.14;100.00
23229;BME280;11783;50.350;6.576;2023-04-24T11:14:04;95434.56;;;6.24;100.00
23229;BME280;11783;50.350;6.576;2023-04-24T11:19:20;95411.16;;;6.56;100.00
23229;BME280;11783;50.350;6.576;2023-04-24T11:22:00;95415.19;;;6.92;100.00
23229;BME280;11783;50.350;6.576;2023-04-24T11:32:41;95425.50;;;7.83;100.00
23229;BME280;11783;50.350;6.576;2023-04-24T11:35:13;95420.16;;;8.00;100.00
23229;BME280;11783;50.350;6.576;2023-04-24T11:37:42;95415.22;;;8.08;100.00
23229;BME280;11783;50.350;6.576;2023-04-24T11:40:12;95409.72;;;8.15;100.00
23229;BME280;11783;50.350;6.576;2023-04-24T11:42:43;95419.28;;;8.16;100.00
23229;BME280;11783;50.350;6.576;2023-04-24T11:45:22;95421.13;;;8.15;100.00
23229;BME280;11783;50.350;6.576;2023-04-24T11:47:47;95421.63;;;8.12;100.00
23229;BME280;11783;50.350;6.576;2023-04-24T11:50:15;95436.59;;;8.02;99.39
23229;BME280;11783;50.350;6.576;2023-04-24T11:52:42;95431.16;;;8.13;100.00
23229;BME280;11783;50.350;6.576;2023-04-24T11:57:50;95448.25;;;7.84;100.00
23229;BME280;11783;50.350;6.576;2023-04-24T12:00:17;95442.94;;;8.01;100.00
23229;BME280;11783;50.350;6.576;2023-04-24T12:02:44;95448.94;;;8.18;100.00
23229;BME280;11783;50.350;6.576;2023-04-24T12:05:19;95452.59;;;8.34;100.00
23229;BME280;11783;50.350;6.576;2023-04-24T12:07:44;95454.00;;;8.19;95.83
23229;BME280;11783;50.350;6.576;2023-04-24T12:10:10;95459.16;;;8.09;98.60
23229;BME280;11783;50.350;6.576;2023-04-24T12:12:35;95450.78;;;8.17;98.96
23229;BME280;11783;50.350;6.576;2023-04-24T12:15:07;95443.97;;;8.22;96.95
23229;BME280;11783;50.350;6.576;2023-04-24T12:17:34;95446.44;;;8.50;99.42
23229;BME280;11783;50.350;6.576;2023-04-24T12:20:04;95460.03;;;8.86;100.00
23229;BME280;11783;50.350;6.576;2023-04-24T12:25:10;95457.63;;;8.84;93.84
23229;BME280;11783;50.350;6.576;2023-04-24T12:27:35;95468.38;;;8.72;89.61
23229;BME280;11783;50.350;6.576;2023-04-24T12:30:03;95475.97;;;8.64;90.88
23229;BME280;11783;50.350;6.576;2023-04-24T12:32:29;95468.69;;;8.32;92.74
23229;BME280;11783;50.350;6.576;2023-04-24T12:34:55;95471.34;;;8.32;91.33
23229;BME280;11783;50.350;6.576;2023-04-24T12:37:23;95475.28;;;8.30;91.20
23229;BME280;11783;50.350;6.576;2023-04-24T12:42:29;95479.88;;;8.34;91.25
23229;BME280;11783;50.350;6.576;2023-04-24T12:45:03;95476.97;;;8.36;92.40
23229;BME280;11783;50.350;6.576;2023-04-24T12:47:29;95497.81;;;8.32;91.62
23229;BME280;11783;50.350;6.576;2023-04-24T12:49:55;95495.34;;;8.42;91.68
23229;BME280;11783;50.350;6.576;2023-04-24T12:52:25;95494.34;;;8.48;91.36
23229;BME280;11783;50.350;6.576;2023-04-24T12:54:53;95503.59;;;8.46;91.52
23229;BME280;11783;50.350;6.576;2023-04-24T12:57:18;95506.97;;;8.41;92.08
23229;BME280;11783;50.350;6.576;2023-04-24T12:59:44;95512.09;;;8.31;91.24
23229;BME280;11783;50.350;6.576;2023-04-24T13:02:10;95511.06;;;8.32;92.55
23229;BME280;11783;50.350;6.576;2023-04-24T13:04:36;95490.03;;;8.42;92.41
23229;BME280;11783;50.350;6.576;2023-04-24T13:07:01;95499.34;;;8.45;91.78
23229;BME280;11783;50.350;6.576;2023-04-24T13:09:27;95505.88;;;8.37;94.86
23229;BME280;11783;50.350;6.576;2023-04-24T13:11:54;95504.72;;;8.33;89.10
23229;BME280;11783;50.350;6.576;2023-04-24T13:14:20;95501.00;;;8.51;93.60
23229;BME280;11783;50.350;6.576;2023-04-24T13:16:45;95504.91;;;8.70;92.71
23229;BME280;11783;50.350;6.576;2023-04-24T13:19:11;95491.28;;;9.10;96.88